Time;durP1;ratioP1;P1;durP2;ratioP2;P2;SDS_P1;SDS_P2;PMS_P1;PMS_P2;Temp;Humidity;BMP_temperature;BMP_pressure;BME280_temperature;BME280_humidity;BME280_pressure;Samples;Min_cycle;Max_cycle;Signal;HPM_P1;HPM_P2
2024/01/07 00:00:44;;;;;;;5.95;4.22;;;;;;;;;;5061452;28;20480;-70
2024/01/07 00:03:10;;;;;;;5.50;4.20;;;;;;;;;;5057023;28;20492;-69
2024/01/07 00:05:36;;;;;;;6.07;4.30;;;;;;;;;;5045095;28;20049;-71
2024/01/07 00:08:01;;;;;;;5.68;4.30;;;;;;;;;;5048926;28;20493;-70
2024/01/07 00:10:26;;;;;;;7.28;4.93;;;;;;;;;;5062381;28;20116;-70
2024/01/07 00:12:52;;;;;;;6.50;4.57;;;;;;;;;;5041382;28;20117;-71
2024/01/07 00:15:17;;;;;;;6.40;4.30;;;;;;;;;;5052464;28;20504;-70
2024/01/07 00:17:44;;;;;;;6.50;4.32;;;;;;;;;;5053300;28;20029;-69
2024/01/07 00:20:10;;;;;;;5.45;4.07;;;;;;;;;;5063123;28;20048;-69
2024/01/07 00:22:35;;;;;;;7.25;4.55;;;;;;;;;;5064805;28;20029;-70
2024/01/07 00:25:01;;;;;;;6.47;4.18;;;;;;;;;;5049536;28;20039;-70
2024/01/07 00:27:26;;;;;;;6.28;4.60;;;;;;;;;;5029297;28;20566;-69
2024/01/07 00:29:51;;;;;;;6.32;4.55;;;;;;;;;;5035685;28;20075;-70
2024/01/07 00:32:17;;;;;;;6.63;4.57;;;;;;;;;;5042509;28;20025;-70
2024/01/07 00:34:42;;;;;;;5.72;4.28;;;;;;;;;;5050834;28;20095;-70
2024/01/07 00:37:07;;;;;;;5.50;4.20;;;;;;;;;;5050528;28;20041;-70
2024/01/07 00:39:33;;;;;;;5.47;4.18;;;;;;;;;;5048339;28;20028;-70
2024/01/07 00:41:58;;;;;;;6.35;4.40;;;;;;;;;;5054922;28;20044;-69
2024/01/07 00:44:23;;;;;;;8.32;4.75;;;;;;;;;;5053768;28;20519;-70
2024/01/07 00:46:49;;;;;;;6.22;4.20;;;;;;;;;;5055187;28;20162;-69
2024/01/07 00:49:16;;;;;;;6.10;4.50;;;;;;;;;;5059190;28;20039;-69
2024/01/07 00:51:42;;;;;;;6.05;4.20;;;;;;;;;;5061887;28;20033;-70
2024/01/07 00:54:07;;;;;;;5.78;4.43;;;;;;;;;;5041115;28;20429;-70
2024/01/07 00:56:32;;;;;;;6.57;4.82;;;;;;;;;;5053055;28;20029;-70
2024/01/07 00:58:58;;;;;;;6.05;4.38;;;;;;;;;;5070243;28;20036;-70
2024/01/07 01:01:24;;;;;;;7.63;4.47;;;;;;;;;;5070115;28;20080;-70
2024/01/07 01:03:49;;;;;;;5.55;4.15;;;;;;;;;;5042642;28;20033;-70
2024/01/07 01:06:15;;;;;;;6.07;4.35;;;;;;;;;;5051723;28;20515;-70
2024/01/07 01:08:40;;;;;;;7.20;4.78;;;;;;;;;;5055158;28;20784;-70
2024/01/07 01:11:08;;;;;;;5.60;4.35;;;;;;;;;;5079076;28;20037;-69
2024/01/07 01:13:34;;;;;;;5.30;4.05;;;;;;;;;;5035123;28;20033;-70
2024/01/07 01:15:59;;;;;;;6.70;4.85;;;;;;;;;;5048613;28;20044;-70
2024/01/07 01:18:24;;;;;;;6.22;4.30;;;;;;;;;;5047630;28;20103;-70
2024/01/07 01:20:50;;;;;;;6.30;4.60;;;;;;;;;;5049728;28;20071;-70
2024/01/07 01:23:15;;;;;;;6.85;5.10;;;;;;;;;;5048177;28;20065;-70
2024/01/07 01:25:41;;;;;;;6.72;4.82;;;;;;;;;;5068169;28;20509;-69
2024/01/07 01:28:06;;;;;;;6.80;4.90;;;;;;;;;;5049334;28;20044;-69
2024/01/07 01:30:31;;;;;;;5.68;4.45;;;;;;;;;;5050286;28;20047;-69
2024/01/07 01:32:57;;;;;;;6.35;4.90;;;;;;;;;;5047993;28;20036;-70
2024/01/07 01:35:22;;;;;;;6.80;4.72;;;;;;;;;;5052230;28;20540;-70
2024/01/07 01:37:48;;;;;;;7.32;4.90;;;;;;;;;;5060265;28;20036;-70
2024/01/07 01:40:13;;;;;;;6.15;4.72;;;;;;;;;;5049035;28;20041;-69
2024/01/07 01:42:38;;;;;;;7.20;4.95;;;;;;;;;;5049577;28;20139;-72
2024/01/07 01:45:04;;;;;;;7.60;4.97;;;;;;;;;;5042083;28;20032;-69
2024/01/07 01:47:32;;;;;;;6.97;4.85;;;;;;;;;;5060156;28;20032;-69
2024/01/07 01:49:58;;;;;;;6.82;4.75;;;;;;;;;;5053045;28;20110;-69
2024/01/07 01:52:23;;;;;;;6.65;4.68;;;;;;;;;;5066220;28;20117;-71
2024/01/07 01:54:48;;;;;;;6.75;4.50;;;;;;;;;;5048342;28;20055;-69
2024/01/07 01:57:19;;;;;;;6.35;4.90;;;;;;;;;;5058688;28;20075;-70
2024/01/07 01:59:44;;;;;;;6.32;4.80;;;;;;;;;;5068491;28;20036;-69
2024/01/07 02:02:10;;;;;;;6.05;4.40;;;;;;;;;;5042690;28;20496;-70
2024/01/07 02:04:35;;;;;;;6.65;4.60;;;;;;;;;;5052806;28;20044;-69
2024/01/07 02:07:00;;;;;;;8.02;4.90;;;;;;;;;;5056836;28;20033;-70
2024/01/07 02:09:26;;;;;;;7.28;4.78;;;;;;;;;;5054387;28;20094;-69
2024/01/07 02:12:02;;;;;;;6.40;4.43;;;;;;;;;;5056378;28;20061;-70
2024/01/07 02:14:27;;;;;;;7.32;5.03;;;;;;;;;;5060957;28;20052;-70
2024/01/07 02:16:52;;;;;;;6.20;4.68;;;;;;;;;;5055344;28;20033;-70
2024/01/07 02:19:17;;;;;;;6.15;4.72;;;;;;;;;;5047461;28;20128;-70
2024/01/07 02:21:43;;;;;;;7.05;4.30;;;;;;;;;;5053119;28;20055;-70
2024/01/07 02:24:14;;;;;;;6.55;4.90;;;;;;;;;;5047729;28;20051;-70
2024/01/07 02:26:39;;;;;;;6.18;4.55;;;;;;;;;;5056326;28;20033;-70
2024/01/07 02:29:05;;;;;;;5.78;4.60;;;;;;;;;;5052839;28;20059;-71
2024/01/07 02:31:30;;;;;;;5.80;4.35;;;;;;;;;;5036176;28;20059;-70
2024/01/07 02:33:55;;;;;;;7.00;4.68;;;;;;;;;;5049134;28;20021;-70
2024/01/07 02:36:21;;;;;;;5.97;4.65;;;;;;;;;;5051294;28;20028;-71
2024/01/07 02:38:46;;;;;;;5.97;5.00;;;;;;;;;;5059111;28;20088;-70
2024/01/07 02:41:11;;;;;;;7.78;5.10;;;;;;;;;;5053116;28;20036;-71
2024/01/07 02:43:43;;;;;;;5.53;4.45;;;;;;;;;;5041406;28;20465;-70
2024/01/07 02:46:08;;;;;;;6.15;4.50;;;;;;;;;;5047709;28;20076;-70
2024/01/07 02:48:34;;;;;;;6.55;4.70;;;;;;;;;;5062669;28;20021;-70
2024/01/07 02:50:59;;;;;;;6.32;4.60;;;;;;;;;;5056593;28;20440;-70
2024/01/07 02:53:24;;;;;;;5.88;4.60;;;;;;;;;;5058504;28;20017;-70
2024/01/07 02:55:49;;;;;;;6.07;4.40;;;;;;;;;;5045426;28;20021;-70
2024/01/07 02:58:15;;;;;;;5.25;4.10;;;;;;;;;;5070615;28;20776;-70
2024/01/07 03:00:40;;;;;;;6.28;4.50;;;;;;;;;;5056307;28;20553;-70
2024/01/07 03:03:06;;;;;;;5.95;4.20;;;;;;;;;;5068425;28;20120;-70
2024/01/07 03:05:32;;;;;;;5.85;4.80;;;;;;;;;;5047643;28;20059;-70
2024/01/07 03:07:58;;;;;;;6.15;4.68;;;;;;;;;;5052961;28;20440;-70
2024/01/07 03:10:24;;;;;;;6.57;4.40;;;;;;;;;;5049006;28;20032;-70
2024/01/07 03:12:49;;;;;;;6.28;4.70;;;;;;;;;;5048884;28;20024;-69
2024/01/07 03:15:15;;;;;;;5.63;4.15;;;;;;;;;;5040823;28;20031;-69
2024/01/07 03:17:40;;;;;;;6.22;4.50;;;;;;;;;;5042271;28;20029;-69
2024/01/07 03:20:06;;;;;;;6.47;4.32;;;;;;;;;;5042289;28;20489;-70
2024/01/07 03:22:31;;;;;;;6.03;4.70;;;;;;;;;;5041154;28;20601;-69
2024/01/07 03:24:56;;;;;;;6.55;4.88;;;;;;;;;;5042118;28;20048;-70
2024/01/07 03:27:22;;;;;;;5.93;4.70;;;;;;;;;;5043785;28;20036;-70
2024/01/07 03:29:47;;;;;;;6.43;4.75;;;;;;;;;;5042671;28;20028;-69
2024/01/07 03:32:12;;;;;;;6.75;5.13;;;;;;;;;;5041406;28;20035;-69
2024/01/07 03:34:39;;;;;;;6.75;4.60;;;;;;;;;;5056224;28;20013;-71
2024/01/07 03:37:04;;;;;;;6.50;4.80;;;;;;;;;;5055901;28;20028;-69
2024/01/07 03:39:32;;;;;;;5.90;4.40;;;;;;;;;;5042808;28;20056;-69
2024/01/07 03:41:57;;;;;;;6.65;4.65;;;;;;;;;;5050405;28;20033;-70
2024/01/07 03:44:22;;;;;;;6.07;4.60;;;;;;;;;;5047630;28;20096;-70
2024/01/07 03:46:48;;;;;;;6.55;4.90;;;;;;;;;;5047321;28;20504;-70
2024/01/07 03:49:14;;;;;;;6.90;4.32;;;;;;;;;;5059221;28;20044;-70
2024/01/07 03:51:39;;;;;;;6.25;4.22;;;;;;;;;;5063784;28;20036;-70
2024/01/07 03:54:05;;;;;;;6.25;4.47;;;;;;;;;;5048497;28;20099;-70
2024/01/07 03:56:30;;;;;;;5.40;4.25;;;;;;;;;;5050464;28;20058;-70
2024/01/07 03:58:56;;;;;;;5.22;4.25;;;;;;;;;;5065081;28;20023;-69
2024/01/07 04:01:21;;;;;;;5.80;4.57;;;;;;;;;;5052220;28;20057;-70
2024/01/07 04:03:47;;;;;;;6.05;4.40;;;;;;;;;;5050165;28;20025;-70
2024/01/07 04:06:12;;;;;;;6.13;4.53;;;;;;;;;;5048860;28;20138;-70
2024/01/07 04:08:37;;;;;;;6.82;4.60;;;;;;;;;;5066265;28;20036;-70
2024/01/07 04:11:02;;;;;;;6.53;4.90;;;;;;;;;;5048024;28;20064;-70
2024/01/07 04:13:28;;;;;;;5.72;4.22;;;;;;;;;;5051125;28;20041;-70
2024/01/07 04:15:53;;;;;;;5.47;4.13;;;;;;;;;;5039312;28;20034;-70
2024/01/07 04:18:19;;;;;;;6.38;4.50;;;;;;;;;;5053009;28;20101;-70
2024/01/07 04:20:44;;;;;;;6.07;4.50;;;;;;;;;;5055129;28;20151;-70
2024/01/07 04:23:09;;;;;;;5.95;4.65;;;;;;;;;;5052375;28;20061;-70
2024/01/07 04:25:34;;;;;;;6.35;4.60;;;;;;;;;;5045395;28;20036;-70
2024/01/07 04:28:00;;;;;;;6.90;4.93;;;;;;;;;;5051063;28;20056;-70
2024/01/07 04:30:25;;;;;;;5.70;4.40;;;;;;;;;;5054006;28;20048;-69
2024/01/07 04:32:50;;;;;;;5.88;4.28;;;;;;;;;;5056382;28;20028;-70
2024/01/07 04:35:16;;;;;;;6.43;4.63;;;;;;;;;;5049052;28;20138;-70
2024/01/07 04:37:41;;;;;;;6.15;4.15;;;;;;;;;;5053118;28;20041;-71
2024/01/07 04:40:07;;;;;;;6.05;4.43;;;;;;;;;;5056279;28;20043;-70
2024/01/07 04:42:32;;;;;;;5.85;4.25;;;;;;;;;;5051872;28;20043;-70
2024/01/07 04:44:57;;;;;;;7.20;4.30;;;;;;;;;;5052519;28;20492;-69
2024/01/07 04:47:23;;;;;;;5.05;4.05;;;;;;;;;;5059092;28;20552;-71
2024/01/07 04:49:49;;;;;;;5.22;3.92;;;;;;;;;;5073688;28;20428;-70
2024/01/07 04:52:14;;;;;;;5.63;4.30;;;;;;;;;;5050913;28;20116;-69
2024/01/07 04:54:39;;;;;;;6.28;4.35;;;;;;;;;;5045129;28;20135;-70
2024/01/07 04:57:05;;;;;;;5.97;4.07;;;;;;;;;;5052793;28;20036;-70
2024/01/07 04:59:30;;;;;;;9.20;4.55;;;;;;;;;;5068526;28;20384;-70
2024/01/07 05:01:56;;;;;;;5.75;4.68;;;;;;;;;;5048156;28;20037;-70
2024/01/07 05:04:21;;;;;;;5.30;4.15;;;;;;;;;;5053923;28;20460;-70
2024/01/07 05:06:46;;;;;;;7.60;4.80;;;;;;;;;;5049334;28;20099;-69
2024/01/07 05:09:12;;;;;;;5.63;4.30;;;;;;;;;;5042546;28;20033;-71
2024/01/07 05:11:39;;;;;;;5.75;3.97;;;;;;;;;;5049383;28;20052;-69
2024/01/07 05:14:04;;;;;;;6.00;4.18;;;;;;;;;;5045934;28;20499;-69
2024/01/07 05:16:30;;;;;;;5.45;4.20;;;;;;;;;;5042505;28;20135;-69
2024/01/07 05:18:55;;;;;;;6.65;4.28;;;;;;;;;;5046969;28;20029;-69
2024/01/07 05:21:20;;;;;;;5.30;3.90;;;;;;;;;;5042391;28;20033;-69
2024/01/07 05:23:45;;;;;;;4.72;3.70;;;;;;;;;;5039776;28;20032;-69
2024/01/07 05:26:11;;;;;;;5.28;3.90;;;;;;;;;;5041652;28;20140;-68
2024/01/07 05:28:36;;;;;;;5.38;4.18;;;;;;;;;;5036104;28;20040;-68
2024/01/07 05:31:02;;;;;;;5.15;3.53;;;;;;;;;;5032576;28;20060;-68
2024/01/07 05:33:27;;;;;;;5.95;4.22;;;;;;;;;;5033559;28;20133;-68
2024/01/07 05:35:52;;;;;;;5.15;4.00;;;;;;;;;;5046190;28;20032;-69
2024/01/07 05:38:18;;;;;;;6.72;4.13;;;;;;;;;;5042718;28;20036;-69
2024/01/07 05:40:43;;;;;;;5.60;4.00;;;;;;;;;;5047351;28;20033;-69
2024/01/07 05:43:08;;;;;;;4.88;3.95;;;;;;;;;;5042192;28;20196;-70
2024/01/07 05:45:34;;;;;;;5.65;3.92;;;;;;;;;;5048660;28;20026;-69
2024/01/07 05:47:59;;;;;;;5.75;3.80;;;;;;;;;;5044563;28;20052;-69
2024/01/07 05:50:24;;;;;;;5.15;3.92;;;;;;;;;;5044041;28;20037;-68
2024/01/07 05:52:52;;;;;;;7.35;3.78;;;;;;;;;;5041952;28;20088;-69
2024/01/07 05:55:17;;;;;;;4.80;3.53;;;;;;;;;;5041184;28;20524;-69
2024/01/07 05:57:43;;;;;;;6.43;3.97;;;;;;;;;;5053575;28;20040;-69
2024/01/07 06:00:09;;;;;;;6.07;4.00;;;;;;;;;;5055769;28;20059;-69
2024/01/07 06:02:36;;;;;;;4.28;3.35;;;;;;;;;;5051153;28;20061;-69
2024/01/07 06:05:02;;;;;;;5.28;3.97;;;;;;;;;;5041792;28;20056;-70
2024/01/07 06:07:27;;;;;;;4.15;3.22;;;;;;;;;;5040272;28;20033;-70
2024/01/07 06:09:52;;;;;;;4.78;3.33;;;;;;;;;;5042279;28;20424;-70
2024/01/07 06:12:18;;;;;;;5.50;3.63;;;;;;;;;;5039425;28;20047;-70
2024/01/07 06:14:43;;;;;;;4.78;3.63;;;;;;;;;;5039707;28;20042;-70
2024/01/07 06:17:09;;;;;;;4.95;3.50;;;;;;;;;;5040785;28;20539;-70
2024/01/07 06:19:34;;;;;;;4.65;3.58;;;;;;;;;;5036027;28;20128;-69
2024/01/07 06:21:59;;;;;;;5.10;3.60;;;;;;;;;;5050524;28;20045;-70
2024/01/07 06:24:25;;;;;;;4.68;3.42;;;;;;;;;;5042862;28;20091;-69
2024/01/07 06:26:50;;;;;;;4.35;3.40;;;;;;;;;;5038789;28;20038;-70
2024/01/07 06:29:15;;;;;;;5.20;3.80;;;;;;;;;;5052956;28;20033;-70
2024/01/07 06:31:48;;;;;;;4.50;3.63;;;;;;;;;;5037630;28;20055;-70
2024/01/07 06:34:14;;;;;;;4.13;3.00;;;;;;;;;;5041473;28;20500;-70
2024/01/07 06:36:41;;;;;;;4.25;3.17;;;;;;;;;;5053957;28;20139;-70
2024/01/07 06:39:07;;;;;;;4.82;3.10;;;;;;;;;;5040857;28;20037;-70
2024/01/07 06:41:33;;;;;;;4.47;3.10;;;;;;;;;;5045281;28;20068;-70
2024/01/07 06:43:58;;;;;;;4.50;3.30;;;;;;;;;;5048645;28;20495;-70
2024/01/07 06:46:24;;;;;;;4.40;2.97;;;;;;;;;;5045986;28;20037;-70
2024/01/07 06:48:49;;;;;;;4.28;3.20;;;;;;;;;;5050004;28;20037;-69
2024/01/07 06:51:15;;;;;;;4.40;3.20;;;;;;;;;;5045748;28;20099;-70
2024/01/07 06:53:40;;;;;;;4.45;3.00;;;;;;;;;;5059803;28;20490;-70
2024/01/07 06:56:05;;;;;;;4.60;3.10;;;;;;;;;;5051784;28;20075;-69
2024/01/07 06:58:32;;;;;;;4.50;3.33;;;;;;;;;;5045213;28;20036;-69
2024/01/07 07:00:57;;;;;;;4.25;3.13;;;;;;;;;;5047044;28;20033;-71
2024/01/07 07:03:23;;;;;;;4.25;3.30;;;;;;;;;;5049824;28;20086;-70
2024/01/07 07:05:48;;;;;;;3.78;2.65;;;;;;;;;;5048453;28;20025;-70
2024/01/07 07:08:13;;;;;;;3.58;2.60;;;;;;;;;;5050553;28;20500;-71
2024/01/07 07:10:39;;;;;;;3.80;3.03;;;;;;;;;;5052330;28;20036;-70
2024/01/07 07:13:04;;;;;;;5.03;3.00;;;;;;;;;;5043500;28;20033;-70
2024/01/07 07:15:29;;;;;;;3.33;2.63;;;;;;;;;;5046374;28;20482;-70
2024/01/07 07:17:55;;;;;;;3.78;2.85;;;;;;;;;;5048251;28;20041;-71
2024/01/07 07:20:20;;;;;;;3.75;2.67;;;;;;;;;;5042462;28;20041;-71
2024/01/07 07:22:46;;;;;;;4.07;2.83;;;;;;;;;;5046847;28;20035;-70
2024/01/07 07:25:12;;;;;;;3.40;2.75;;;;;;;;;;5045800;28;20214;-71
2024/01/07 07:27:38;;;;;;;3.92;2.80;;;;;;;;;;5031622;28;20063;-71
2024/01/07 07:30:04;;;;;;;4.05;2.97;;;;;;;;;;5040215;28;20052;-69
2024/01/07 07:32:29;;;;;;;5.75;2.90;;;;;;;;;;5046394;28;20037;-70
2024/01/07 07:34:55;;;;;;;7.63;3.30;;;;;;;;;;5043009;28;20044;-69
2024/01/07 07:37:21;;;;;;;5.93;2.90;;;;;;;;;;5065359;28;20154;-72
2024/01/07 07:39:46;;;;;;;10.38;3.28;;;;;;;;;;5063889;28;20097;-72
2024/01/07 07:42:12;;;;;;;6.53;2.70;;;;;;;;;;5051928;28;20053;-70
2024/01/07 07:44:39;;;;;;;8.00;3.30;;;;;;;;;;5051475;28;20025;-70
2024/01/07 07:47:04;;;;;;;5.47;3.20;;;;;;;;;;5065546;28;20095;-70
2024/01/07 07:49:29;;;;;;;7.78;3.50;;;;;;;;;;5050451;28;20026;-70
2024/01/07 07:51:55;;;;;;;5.55;3.00;;;;;;;;;;5052642;28;20036;-71
2024/01/07 07:54:20;;;;;;;5.18;2.90;;;;;;;;;;5058845;28;20037;-71
2024/01/07 07:56:45;;;;;;;5.40;3.10;;;;;;;;;;5048636;28;20485;-70
2024/01/07 07:59:11;;;;;;;4.78;3.05;;;;;;;;;;5045188;28;20045;-71
2024/01/07 08:01:37;;;;;;;5.22;3.35;;;;;;;;;;5045291;28;20041;-70
2024/01/07 08:04:04;;;;;;;7.78;2.95;;;;;;;;;;5047149;28;20553;-69
2024/01/07 08:06:31;;;;;;;4.90;3.00;;;;;;;;;;5062014;28;22233;-70
2024/01/07 08:08:56;;;;;;;4.85;3.10;;;;;;;;;;5045442;28;20261;-70
2024/01/07 08:11:22;;;;;;;5.47;2.97;;;;;;;;;;5059645;28;20032;-69
2024/01/07 08:13:49;;;;;;;6.05;2.85;;;;;;;;;;5046553;28;20057;-70
2024/01/07 08:16:14;;;;;;;4.25;2.90;;;;;;;;;;5038722;28;20524;-70
2024/01/07 08:18:40;;;;;;;6.05;3.03;;;;;;;;;;5048754;28;20035;-71
2024/01/07 08:21:05;;;;;;;5.47;2.60;;;;;;;;;;5047083;28;20060;-69
2024/01/07 08:23:32;;;;;;;4.85;2.90;;;;;;;;;;5041259;28;20037;-70
2024/01/07 08:25:58;;;;;;;5.38;2.70;;;;;;;;;;5054962;28;20037;-70
2024/01/07 08:28:23;;;;;;;6.60;3.00;;;;;;;;;;5044447;28;20419;-71
2024/01/07 08:30:49;;;;;;;3.28;2.42;;;;;;;;;;5055680;28;20033;-71
2024/01/07 08:33:14;;;;;;;5.00;3.00;;;;;;;;;;5024764;28;20037;-71
2024/01/07 08:35:39;;;;;;;5.70;2.58;;;;;;;;;;5047162;28;20033;-70
2024/01/07 08:38:05;;;;;;;4.00;2.25;;;;;;;;;;5045136;28;20515;-71
2024/01/07 08:40:30;;;;;;;4.70;2.70;;;;;;;;;;5047508;28;20144;-72
2024/01/07 08:42:56;;;;;;;4.15;2.50;;;;;;;;;;5066143;28;20052;-71
2024/01/07 08:45:21;;;;;;;5.68;2.80;;;;;;;;;;5062873;28;20056;-71
2024/01/07 08:47:47;;;;;;;3.95;2.80;;;;;;;;;;5059506;28;20094;-70
2024/01/07 08:50:12;;;;;;;4.03;2.75;;;;;;;;;;5050475;28;20040;-70
2024/01/07 08:52:38;;;;;;;3.65;2.47;;;;;;;;;;5048150;28;20051;-69
2024/01/07 08:55:05;;;;;;;4.82;2.50;;;;;;;;;;5066188;28;20037;-70
2024/01/07 08:57:31;;;;;;;4.40;2.67;;;;;;;;;;5043342;28;20037;-71
2024/01/07 08:59:56;;;;;;;4.90;2.55;;;;;;;;;;5044217;28;20444;-70
2024/01/07 09:02:21;;;;;;;3.63;2.25;;;;;;;;;;5048016;28;20193;-71
2024/01/07 09:04:47;;;;;;;4.47;2.60;;;;;;;;;;5051121;28;20032;-70
2024/01/07 09:07:12;;;;;;;4.47;2.38;;;;;;;;;;5046834;28;20029;-70
2024/01/07 09:09:37;;;;;;;4.03;2.65;;;;;;;;;;5043303;28;20029;-71
2024/01/07 09:12:03;;;;;;;3.58;2.72;;;;;;;;;;5043044;28;20041;-70
2024/01/07 09:14:29;;;;;;;4.53;2.38;;;;;;;;;;5043135;28;20053;-71
2024/01/07 09:16:55;;;;;;;4.32;2.40;;;;;;;;;;5042648;28;20042;-71
2024/01/07 09:19:20;;;;;;;4.00;2.42;;;;;;;;;;5047027;28;20045;-71
2024/01/07 09:21:45;;;;;;;4.07;2.60;;;;;;;;;;5044378;28;20042;-71
2024/01/07 09:24:11;;;;;;;4.80;2.45;;;;;;;;;;5047152;28;20140;-69
2024/01/07 09:26:37;;;;;;;3.78;2.40;;;;;;;;;;5043589;28;20083;-72
2024/01/07 09:29:02;;;;;;;3.45;2.40;;;;;;;;;;5044569;28;20044;-70
2024/01/07 09:31:28;;;;;;;4.85;2.50;;;;;;;;;;5062878;28;20032;-71
2024/01/07 09:33:55;;;;;;;3.85;2.20;;;;;;;;;;5046240;28;20046;-71
2024/01/07 09:36:20;;;;;;;4.43;2.22;;;;;;;;;;5049759;28;20063;-71
2024/01/07 09:38:46;;;;;;;3.33;2.15;;;;;;;;;;5063948;28;20057;-71
2024/01/07 09:41:11;;;;;;;4.28;2.65;;;;;;;;;;5049497;28;20041;-71
2024/01/07 09:43:36;;;;;;;3.60;2.17;;;;;;;;;;5048987;28;20546;-70
2024/01/07 09:46:02;;;;;;;3.75;2.35;;;;;;;;;;5056676;28;20179;-71
2024/01/07 09:48:28;;;;;;;3.17;2.10;;;;;;;;;;5039216;28;20033;-70
2024/01/07 09:50:53;;;;;;;4.68;2.28;;;;;;;;;;5048764;28;20029;-70
2024/01/07 09:53:19;;;;;;;3.22;2.20;;;;;;;;;;5048007;28;20033;-70
2024/01/07 09:55:45;;;;;;;3.45;2.08;;;;;;;;;;5055206;28;20749;-69
2024/01/07 09:58:11;;;;;;;3.08;1.88;;;;;;;;;;5049955;28;20032;-72
2024/01/07 10:00:36;;;;;;;3.95;2.40;;;;;;;;;;5042808;28;20359;-69
2024/01/07 10:03:02;;;;;;;3.45;2.15;;;;;;;;;;5054099;28;20041;-70
2024/01/07 10:05:29;;;;;;;2.88;2.13;;;;;;;;;;5045011;28;20052;-69
2024/01/07 10:07:57;;;;;;;3.70;2.15;;;;;;;;;;5045372;28;20120;-70
2024/01/07 10:10:22;;;;;;;3.65;2.40;;;;;;;;;;5051410;28;20120;-69
2024/01/07 10:12:47;;;;;;;4.18;2.17;;;;;;;;;;5045858;28;20129;-72
2024/01/07 10:15:13;;;;;;;3.63;2.10;;;;;;;;;;5046928;28;20036;-71
2024/01/07 10:17:39;;;;;;;2.95;2.00;;;;;;;;;;5046030;28;20530;-70
2024/01/07 10:20:05;;;;;;;5.57;2.15;;;;;;;;;;5046762;28;20033;-70
2024/01/07 10:22:30;;;;;;;3.42;2.17;;;;;;;;;;5046308;28;20044;-70
2024/01/07 10:24:56;;;;;;;2.95;1.85;;;;;;;;;;5045824;28;20032;-69
2024/01/07 10:27:22;;;;;;;3.75;2.00;;;;;;;;;;5043874;28;20459;-69
2024/01/07 10:29:55;;;;;;;2.67;2.03;;;;;;;;;;5043957;28;20053;-68
2024/01/07 10:32:20;;;;;;;4.85;3.05;;;;;;;;;;5040848;28;20043;-74
2024/01/07 10:34:46;;;;;;;4.30;2.78;;;;;;;;;;5057815;28;20063;-70
2024/01/07 10:37:12;;;;;;;6.65;3.95;;;;;;;;;;5042725;28;20105;-72
2024/01/07 10:39:39;;;;;;;5.45;3.80;;;;;;;;;;5044057;28;20091;-70
2024/01/07 10:42:04;;;;;;;6.03;3.80;;;;;;;;;;5046770;28;20045;-70
2024/01/07 10:44:30;;;;;;;5.82;3.83;;;;;;;;;;5067412;28;20435;-69
2024/01/07 10:46:56;;;;;;;5.95;3.70;;;;;;;;;;5058473;28;20028;-70
2024/01/07 10:49:21;;;;;;;5.15;3.55;;;;;;;;;;5049070;28;20086;-69
2024/01/07 10:51:57;;;;;;;7.55;3.70;;;;;;;;;;5042626;28;20044;-69
2024/01/07 10:54:23;;;;;;;5.60;3.35;;;;;;;;;;5050790;28;20024;-70
2024/01/07 10:56:49;;;;;;;4.88;3.10;;;;;;;;;;5042202;28;20017;-70
2024/01/07 10:59:15;;;;;;;6.15;3.22;;;;;;;;;;5057856;28;20013;-70
2024/01/07 11:01:40;;;;;;;5.78;3.00;;;;;;;;;;5057258;28;20381;-70
2024/01/07 11:04:08;;;;;;;6.07;3.20;;;;;;;;;;5041930;28;20026;-70
2024/01/07 11:06:40;;;;;;;4.47;2.78;;;;;;;;;;5044091;28;20542;-70
2024/01/07 11:09:16;;;;;;;5.65;2.83;;;;;;;;;;5045509;28;20045;-69
2024/01/07 11:11:42;;;;;;;4.35;2.85;;;;;;;;;;5038964;28;20039;-70
2024/01/07 11:14:26;;;;;;;5.43;2.70;;;;;;;;;;5040836;28;20033;-70
2024/01/07 11:16:53;;;;;;;6.65;2.70;;;;;;;;;;5045037;28;20534;-69
2024/01/07 11:19:20;;;;;;;5.25;2.72;;;;;;;;;;5043628;28;20044;-70
2024/01/07 11:21:45;;;;;;;4.60;2.58;;;;;;;;;;5060689;28;20578;-71
2024/01/07 11:24:31;;;;;;;5.65;2.75;;;;;;;;;;5041347;28;20063;-70
2024/01/07 11:27:01;;;;;;;5.90;2.63;;;;;;;;;;5045276;28;20580;-69
2024/01/07 11:29:27;;;;;;;4.32;2.40;;;;;;;;;;5042463;28;20033;-69
2024/01/07 11:31:52;;;;;;;3.42;2.40;;;;;;;;;;5050330;28;20044;-70
2024/01/07 11:34:49;;;;;;;4.55;2.60;;;;;;;;;;5063727;28;20053;-70
2024/01/07 11:37:15;;;;;;;4.38;2.35;;;;;;;;;;5058487;28;20575;-71
2024/01/07 11:39:47;;;;;;;4.45;2.30;;;;;;;;;;5046627;28;20041;-71
2024/01/07 11:42:13;;;;;;;3.97;2.40;;;;;;;;;;5050692;28;20059;-69
2024/01/07 11:44:44;;;;;;;4.53;2.30;;;;;;;;;;5063074;28;20025;-69
2024/01/07 11:47:10;;;;;;;3.95;2.38;;;;;;;;;;5045233;28;20169;-70
2024/01/07 11:49:37;;;;;;;5.45;2.90;;;;;;;;;;5047855;28;20029;-72
2024/01/07 11:52:04;;;;;;;4.97;2.20;;;;;;;;;;5061005;28;20060;-71
2024/01/07 11:54:29;;;;;;;4.05;2.65;;;;;;;;;;5053402;28;20084;-72
2024/01/07 11:56:54;;;;;;;4.68;2.30;;;;;;;;;;5053278;28;20061;-72
2024/01/07 11:59:20;;;;;;;4.78;2.55;;;;;;;;;;5047657;28;20037;-73
2024/01/07 12:01:45;;;;;;;4.25;2.70;;;;;;;;;;5041087;28;20071;-70
2024/01/07 12:04:12;;;;;;;4.22;2.28;;;;;;;;;;5027943;28;20069;-73
2024/01/07 12:06:37;;;;;;;4.35;2.33;;;;;;;;;;5045349;28;20098;-70
2024/01/07 12:09:03;;;;;;;4.32;2.50;;;;;;;;;;5039178;28;20037;-71
2024/01/07 12:11:28;;;;;;;4.15;2.45;;;;;;;;;;5045184;28;20041;-71
2024/01/07 12:13:54;;;;;;;3.50;2.17;;;;;;;;;;5046356;28;20136;-71
2024/01/07 12:16:20;;;;;;;4.80;2.40;;;;;;;;;;5047012;28;20470;-69
2024/01/07 12:18:45;;;;;;;3.90;2.30;;;;;;;;;;5051567;28;20041;-71
2024/01/07 12:21:11;;;;;;;4.78;2.38;;;;;;;;;;5046562;28;20042;-72
2024/01/07 12:23:36;;;;;;;5.38;2.15;;;;;;;;;;5051036;28;20010;-73
2024/01/07 12:26:09;;;;;;;3.63;2.40;;;;;;;;;;5049054;28;20121;-70
2024/01/07 12:28:34;;;;;;;4.28;2.70;;;;;;;;;;5050912;28;21653;-71
2024/01/07 12:31:01;;;;;;;3.97;2.50;;;;;;;;;;5047275;28;20471;-71
2024/01/07 12:33:26;;;;;;;4.25;2.40;;;;;;;;;;5064645;28;20029;-71
2024/01/07 12:35:52;;;;;;;3.65;1.90;;;;;;;;;;5047959;28;20037;-71
2024/01/07 12:38:23;;;;;;;7.10;2.45;;;;;;;;;;5041484;28;20522;-72
2024/01/07 12:40:48;;;;;;;4.32;2.38;;;;;;;;;;5057403;28;20032;-70
2024/01/07 12:43:13;;;;;;;3.38;2.10;;;;;;;;;;5060197;28;20589;-72
2024/01/07 12:45:40;;;;;;;4.22;2.42;;;;;;;;;;5050443;28;20029;-71
2024/01/07 12:48:05;;;;;;;3.47;2.10;;;;;;;;;;5044639;28;20044;-69
2024/01/07 12:50:31;;;;;;;3.70;2.15;;;;;;;;;;5058882;28;20025;-72
2024/01/07 12:52:57;;;;;;;3.70;2.20;;;;;;;;;;5055990;28;20064;-70
2024/01/07 12:55:22;;;;;;;3.70;2.45;;;;;;;;;;5050020;28;20048;-72
2024/01/07 12:57:47;;;;;;;5.28;2.47;;;;;;;;;;5042094;28;20555;-71
2024/01/07 13:00:13;;;;;;;5.90;2.42;;;;;;;;;;5058250;28;20045;-71
2024/01/07 13:02:39;;;;;;;4.05;2.30;;;;;;;;;;5042617;28;21957;-71
2024/01/07 13:05:05;;;;;;;4.60;2.55;;;;;;;;;;5057066;28;20114;-71
2024/01/07 13:07:31;;;;;;;4.00;2.40;;;;;;;;;;5044642;28;20045;-71
2024/01/07 13:09:56;;;;;;;3.40;2.10;;;;;;;;;;5039252;28;20037;-72
2024/01/07 13:12:21;;;;;;;3.78;2.15;;;;;;;;;;5035162;28;20138;-72
2024/01/07 13:14:46;;;;;;;3.90;2.30;;;;;;;;;;5041019;28;20045;-71
2024/01/07 13:17:12;;;;;;;3.80;2.08;;;;;;;;;;5043417;28;20041;-70
2024/01/07 13:19:39;;;;;;;3.78;2.45;;;;;;;;;;5042565;28;20044;-73
2024/01/07 13:22:04;;;;;;;5.13;2.40;;;;;;;;;;5057057;28;20056;-71
2024/01/07 13:24:30;;;;;;;3.90;2.50;;;;;;;;;;5046706;28;20048;-70
2024/01/07 13:26:55;;;;;;;4.43;2.17;;;;;;;;;;5045981;28;20098;-71
2024/01/07 13:29:20;;;;;;;4.75;2.30;;;;;;;;;;5047457;28;20105;-71
2024/01/07 13:31:46;;;;;;;3.08;1.92;;;;;;;;;;5068444;28;20065;-72
2024/01/07 13:34:13;;;;;;;4.15;2.38;;;;;;;;;;5059224;28;20051;-72
2024/01/07 13:36:39;;;;;;;3.90;2.38;;;;;;;;;;5064171;28;20029;-72
2024/01/07 13:39:07;;;;;;;3.88;2.28;;;;;;;;;;5063246;28;20160;-71
2024/01/07 13:41:32;;;;;;;4.10;2.40;;;;;;;;;;5053716;28;20033;-72
2024/01/07 13:43:58;;;;;;;3.90;2.30;;;;;;;;;;5045939;28;20041;-70
2024/01/07 13:46:25;;;;;;;4.03;2.30;;;;;;;;;;5045138;28;20025;-71
2024/01/07 13:48:51;;;;;;;3.85;2.08;;;;;;;;;;5057376;28;20524;-70
2024/01/07 13:51:17;;;;;;;4.28;2.17;;;;;;;;;;5060660;28;20834;-70
2024/01/07 13:53:42;;;;;;;3.90;2.05;;;;;;;;;;5045398;28;20536;-72
2024/01/07 13:56:08;;;;;;;4.30;2.67;;;;;;;;;;5047709;28;20524;-71
2024/01/07 13:58:33;;;;;;;3.90;2.00;;;;;;;;;;5057847;28;20037;-72
2024/01/07 14:00:59;;;;;;;3.45;2.28;;;;;;;;;;5056695;28;20052;-72
2024/01/07 14:03:24;;;;;;;3.05;2.10;;;;;;;;;;5042897;28;20049;-71
2024/01/07 14:05:51;;;;;;;3.83;2.20;;;;;;;;;;5045291;28;20037;-71
2024/01/07 14:08:16;;;;;;;3.97;2.28;;;;;;;;;;5046977;28;20029;-70
2024/01/07 14:10:41;;;;;;;5.47;2.30;;;;;;;;;;5060628;28;20640;-70
2024/01/07 14:13:07;;;;;;;3.65;2.00;;;;;;;;;;5043806;28;20044;-71
2024/01/07 14:15:32;;;;;;;2.97;2.13;;;;;;;;;;5038988;28;20041;-70
2024/01/07 14:17:58;;;;;;;3.33;2.10;;;;;;;;;;5046440;28;20037;-70
2024/01/07 14:20:23;;;;;;;3.55;2.40;;;;;;;;;;5055501;28;20040;-70
2024/01/07 14:22:49;;;;;;;3.30;1.80;;;;;;;;;;5042444;28;20060;-70
2024/01/07 14:25:15;;;;;;;4.72;2.05;;;;;;;;;;5049068;28;20071;-71
2024/01/07 14:27:40;;;;;;;5.03;2.25;;;;;;;;;;5046049;28;20029;-69
2024/01/07 14:30:06;;;;;;;3.40;2.25;;;;;;;;;;5061000;28;20045;-70
2024/01/07 14:32:33;;;;;;;3.28;2.42;;;;;;;;;;5046892;28;20063;-70
2024/01/07 14:34:58;;;;;;;4.90;2.30;;;;;;;;;;5046009;28;20107;-70